sensor_id;sensor_type;location;lat;lon;timestamp;P1;durP1;ratioP1;P2;durP2;ratioP2
21569;SDS011;57598;50.888;4.746;2023-02-13T00:02:04;70.63;;;65.22;;
21569;SDS011;57598;50.888;4.746;2023-02-13T00:04:31;69.35;;;64.05;;
21569;SDS011;57598;50.888;4.746;2023-02-13T00:06:58;68.80;;;63.60;;
21569;SDS011;57598;50.888;4.746;2023-02-13T00:09:27;70.18;;;64.88;;
21569;SDS011;57598;50.888;4.746;2023-02-13T00:11:54;72.47;;;66.97;;
21569;SDS011;57598;50.888;4.746;2023-02-13T00:14:21;70.40;;;65.10;;
21569;SDS011;57598;50.888;4.746;2023-02-13T00:16:48;72.88;;;67.38;;
21569;SDS011;57598;50.888;4.746;2023-02-13T00:19:16;70.60;;;65.30;;
21569;SDS011;57598;50.888;4.746;2023-02-13T00:21:43;69.30;;;64.03;;
21569;SDS011;57598;50.888;4.746;2023-02-13T00:24:10;68.80;;;63.50;;
21569;SDS011;57598;50.888;4.746;2023-02-13T00:26:39;73.25;;;67.55;;
21569;SDS011;57598;50.888;4.746;2023-02-13T00:29:06;70.93;;;65.63;;
21569;SDS011;57598;50.888;4.746;2023-02-13T00:31:33;72.40;;;67.00;;
21569;SDS011;57598;50.888;4.746;2023-02-13T00:34:01;71.65;;;66.35;;
21569;SDS011;57598;50.888;4.746;2023-02-13T00:36:28;71.68;;;66.38;;
21569;SDS011;57598;50.888;4.746;2023-02-13T00:38:55;70.20;;;64.93;;
21569;SDS011;57598;50.888;4.746;2023-02-13T00:41:23;71.05;;;65.75;;
21569;SDS011;57598;50.888;4.746;2023-02-13T00:43:54;70.10;;;64.80;;
21569;SDS011;57598;50.888;4.746;2023-02-13T00:46:21;68.93;;;63.72;;
21569;SDS011;57598;50.888;4.746;2023-02-13T00:48:48;70.53;;;65.22;;
21569;SDS011;57598;50.888;4.746;2023-02-13T00:51:15;69.53;;;64.32;;
21569;SDS011;57598;50.888;4.746;2023-02-13T00:53:43;67.22;;;62.20;;
21569;SDS011;57598;50.888;4.746;2023-02-13T00:56:10;69.45;;;64.35;;
21569;SDS011;57598;50.888;4.746;2023-02-13T00:58:37;69.15;;;64.00;;
21569;SDS011;57598;50.888;4.746;2023-02-13T01:03:42;68.72;;;63.72;;
21569;SDS011;57598;50.888;4.746;2023-02-13T04:52:50;72.93;;;65.88;;
21569;SDS011;57598;50.888;4.746;2023-02-13T04:55:19;74.03;;;67.03;;
21569;SDS011;57598;50.888;4.746;2023-02-13T04:57:46;81.70;;;73.90;;
21569;SDS011;57598;50.888;4.746;2023-02-13T05:00:13;70.93;;;64.13;;
21569;SDS011;57598;50.888;4.746;2023-02-13T05:02:41;70.28;;;63.58;;
21569;SDS011;57598;50.888;4.746;2023-02-13T05:05:08;80.30;;;73.30;;
21569;SDS011;57598;50.888;4.746;2023-02-13T05:07:35;79.75;;;72.85;;
21569;SDS011;57598;50.888;4.746;2023-02-13T05:10:04;76.05;;;69.30;;
21569;SDS011;57598;50.888;4.746;2023-02-13T05:12:32;78.43;;;71.53;;
21569;SDS011;57598;50.888;4.746;2023-02-13T05:14:59;76.07;;;69.40;;
21569;SDS011;57598;50.888;4.746;2023-02-13T05:17:26;79.03;;;72.22;;
21569;SDS011;57598;50.888;4.746;2023-02-13T05:19:53;79.80;;;73.00;;
21569;SDS011;57598;50.888;4.746;2023-02-13T05:22:21;83.72;;;75.85;;
21569;SDS011;57598;50.888;4.746;2023-02-13T05:25:07;78.90;;;71.90;;
21569;SDS011;57598;50.888;4.746;2023-02-13T05:27:34;79.10;;;72.30;;
21569;SDS011;57598;50.888;4.746;2023-02-13T05:30:02;78.65;;;72.05;;
21569;SDS011;57598;50.888;4.746;2023-02-13T05:32:28;78.72;;;71.93;;
21569;SDS011;57598;50.888;4.746;2023-02-13T05:34:55;74.07;;;67.55;;
21569;SDS011;57598;50.888;4.746;2023-02-13T05:37:23;76.47;;;69.78;;
21569;SDS011;57598;50.888;4.746;2023-02-13T05:39:50;79.22;;;72.32;;
21569;SDS011;57598;50.888;4.746;2023-02-13T05:42:19;75.10;;;68.20;;
21569;SDS011;57598;50.888;4.746;2023-02-13T05:44:46;68.95;;;62.25;;
21569;SDS011;57598;50.888;4.746;2023-02-13T05:47:13;69.97;;;63.47;;
21569;SDS011;57598;50.888;4.746;2023-02-13T05:49:40;75.07;;;68.38;;
21569;SDS011;57598;50.888;4.746;2023-02-13T05:52:08;79.05;;;72.15;;
21569;SDS011;57598;50.888;4.746;2023-02-13T05:54:35;72.88;;;66.28;;
21569;SDS011;57598;50.888;4.746;2023-02-13T05:57:02;70.25;;;63.95;;
21569;SDS011;57598;50.888;4.746;2023-02-13T05:59:31;71.20;;;64.82;;
21569;SDS011;57598;50.888;4.746;2023-02-13T06:01:58;73.88;;;67.30;;
21569;SDS011;57598;50.888;4.746;2023-02-13T06:04:25;80.10;;;72.78;;
21569;SDS011;57598;50.888;4.746;2023-02-13T06:06:53;76.30;;;69.57;;
21569;SDS011;57598;50.888;4.746;2023-02-13T06:09:20;71.78;;;65.47;;
21569;SDS011;57598;50.888;4.746;2023-02-13T06:11:47;73.63;;;67.22;;
21569;SDS011;57598;50.888;4.746;2023-02-13T06:14:15;74.00;;;67.40;;
21569;SDS011;57598;50.888;4.746;2023-02-13T06:16:43;73.38;;;67.00;;
21569;SDS011;57598;50.888;4.746;2023-02-13T06:19:11;72.13;;;65.63;;
21569;SDS011;57598;50.888;4.746;2023-02-13T06:21:38;66.57;;;60.58;;
21569;SDS011;57598;50.888;4.746;2023-02-13T06:24:05;66.43;;;60.42;;
21569;SDS011;57598;50.888;4.746;2023-02-13T06:26:33;69.53;;;63.42;;
21569;SDS011;57598;50.888;4.746;2023-02-13T06:29:00;79.13;;;72.40;;
21569;SDS011;57598;50.888;4.746;2023-02-13T06:31:29;75.00;;;68.35;;
21569;SDS011;57598;50.888;4.746;2023-02-13T06:33:58;73.20;;;66.03;;
21569;SDS011;57598;50.888;4.746;2023-02-13T06:36:25;70.18;;;64.03;;
21569;SDS011;57598;50.888;4.746;2023-02-13T06:38:52;64.18;;;58.28;;
21569;SDS011;57598;50.888;4.746;2023-02-13T06:41:19;67.32;;;61.33;;
21569;SDS011;57598;50.888;4.746;2023-02-13T06:43:47;71.03;;;64.97;;
21569;SDS011;57598;50.888;4.746;2023-02-13T06:46:14;65.55;;;59.85;;
21569;SDS011;57598;50.888;4.746;2023-02-13T06:48:41;64.55;;;58.65;;
21569;SDS011;57598;50.888;4.746;2023-02-13T06:51:10;71.30;;;65.15;;
21569;SDS011;57598;50.888;4.746;2023-02-13T06:53:37;75.25;;;69.00;;
21569;SDS011;57598;50.888;4.746;2023-02-13T06:56:04;72.85;;;66.85;;
21569;SDS011;57598;50.888;4.746;2023-02-13T06:58:32;67.10;;;61.22;;
21569;SDS011;57598;50.888;4.746;2023-02-13T07:00:59;78.97;;;71.68;;
21569;SDS011;57598;50.888;4.746;2023-02-13T07:03:26;69.45;;;63.17;;
21569;SDS011;57598;50.888;4.746;2023-02-13T07:05:53;67.68;;;61.88;;
21569;SDS011;57598;50.888;4.746;2023-02-13T07:08:22;67.55;;;61.80;;
21569;SDS011;57598;50.888;4.746;2023-02-13T07:10:49;70.47;;;64.60;;
21569;SDS011;57598;50.888;4.746;2023-02-13T07:13:17;70.15;;;64.05;;
21569;SDS011;57598;50.888;4.746;2023-02-13T07:15:44;67.90;;;62.10;;
21569;SDS011;57598;50.888;4.746;2023-02-13T07:18:11;66.13;;;60.22;;
21569;SDS011;57598;50.888;4.746;2023-02-13T07:20:38;68.72;;;63.05;;
21569;SDS011;57598;50.888;4.746;2023-02-13T07:23:06;76.15;;;70.25;;
21569;SDS011;57598;50.888;4.746;2023-02-13T07:25:34;69.32;;;63.80;;
21569;SDS011;57598;50.888;4.746;2023-02-13T07:28:02;68.00;;;62.20;;
21569;SDS011;57598;50.888;4.746;2023-02-13T07:30:30;65.47;;;59.78;;
21569;SDS011;57598;50.888;4.746;2023-02-13T07:32:58;69.22;;;63.47;;
21569;SDS011;57598;50.888;4.746;2023-02-13T07:35:25;66.63;;;61.13;;
21569;SDS011;57598;50.888;4.746;2023-02-13T07:37:52;65.63;;;59.58;;
21569;SDS011;57598;50.888;4.746;2023-02-13T07:40:20;65.05;;;59.55;;
21569;SDS011;57598;50.888;4.746;2023-02-13T07:42:48;63.15;;;57.85;;
21569;SDS011;57598;50.888;4.746;2023-02-13T07:45:16;59.47;;;54.47;;
21569;SDS011;57598;50.888;4.746;2023-02-13T07:47:43;62.38;;;57.22;;
21569;SDS011;57598;50.888;4.746;2023-02-13T07:50:10;64.78;;;59.15;;
21569;SDS011;57598;50.888;4.746;2023-02-13T07:52:38;61.38;;;56.17;;
21569;SDS011;57598;50.888;4.746;2023-02-13T07:55:05;60.70;;;55.53;;
21569;SDS011;57598;50.888;4.746;2023-02-13T07:57:33;59.45;;;54.65;;
21569;SDS011;57598;50.888;4.746;2023-02-13T08:00:02;62.28;;;56.75;;
21569;SDS011;57598;50.888;4.746;2023-02-13T08:02:29;58.33;;;53.72;;
21569;SDS011;57598;50.888;4.746;2023-02-13T08:04:56;60.65;;;55.95;;
21569;SDS011;57598;50.888;4.746;2023-02-13T08:07:23;56.97;;;52.47;;
21569;SDS011;57598;50.888;4.746;2023-02-13T08:09:51;56.85;;;52.58;;
21569;SDS011;57598;50.888;4.746;2023-02-13T08:12:36;57.05;;;52.17;;
21569;SDS011;57598;50.888;4.746;2023-02-13T08:15:05;58.05;;;54.05;;
21569;SDS011;57598;50.888;4.746;2023-02-13T08:17:32;53.60;;;50.00;;
21569;SDS011;57598;50.888;4.746;2023-02-13T08:20:00;51.15;;;47.85;;
21569;SDS011;57598;50.888;4.746;2023-02-13T08:22:27;54.40;;;50.17;;
21569;SDS011;57598;50.888;4.746;2023-02-13T08:24:55;49.00;;;46.00;;
21569;SDS011;57598;50.888;4.746;2023-02-13T08:27:22;48.28;;;45.13;;
21569;SDS011;57598;50.888;4.746;2023-02-13T08:29:49;43.42;;;40.63;;
21569;SDS011;57598;50.888;4.746;2023-02-13T08:32:18;42.20;;;39.47;;
21569;SDS011;57598;50.888;4.746;2023-02-13T08:34:45;34.75;;;32.58;;
21569;SDS011;57598;50.888;4.746;2023-02-13T08:37:12;29.45;;;27.73;;
21569;SDS011;57598;50.888;4.746;2023-02-13T08:39:40;32.58;;;30.40;;
21569;SDS011;57598;50.888;4.746;2023-02-13T08:42:07;26.90;;;25.40;;
21569;SDS011;57598;50.888;4.746;2023-02-13T08:44:34;26.55;;;24.13;;
21569;SDS011;57598;50.888;4.746;2023-02-13T08:47:05;25.15;;;23.45;;
21569;SDS011;57598;50.888;4.746;2023-02-13T08:49:33;26.33;;;24.10;;
21569;SDS011;57598;50.888;4.746;2023-02-13T08:52:01;22.58;;;21.05;;
21569;SDS011;57598;50.888;4.746;2023-02-13T08:54:29;25.60;;;23.83;;
21569;SDS011;57598;50.888;4.746;2023-02-13T08:56:57;22.52;;;20.90;;
21569;SDS011;57598;50.888;4.746;2023-02-13T08:59:24;23.45;;;21.67;;
21569;SDS011;57598;50.888;4.746;2023-02-13T09:01:51;23.02;;;21.17;;
21569;SDS011;57598;50.888;4.746;2023-02-13T09:04:19;26.52;;;23.13;;
21569;SDS011;57598;50.888;4.746;2023-02-13T09:06:47;20.33;;;19.15;;
21569;SDS011;57598;50.888;4.746;2023-02-13T09:09:15;23.35;;;21.75;;
21569;SDS011;57598;50.888;4.746;2023-02-13T09:11:42;19.98;;;18.75;;
21569;SDS011;57598;50.888;4.746;2023-02-13T09:14:09;22.33;;;19.55;;
21569;SDS011;57598;50.888;4.746;2023-02-13T09:16:36;21.98;;;20.27;;
21569;SDS011;57598;50.888;4.746;2023-02-13T09:19:04;20.73;;;19.33;;
21569;SDS011;57598;50.888;4.746;2023-02-13T09:21:31;21.80;;;20.38;;
21569;SDS011;57598;50.888;4.746;2023-02-13T09:24:00;24.65;;;23.13;;
21569;SDS011;57598;50.888;4.746;2023-02-13T09:26:27;22.13;;;20.75;;
21569;SDS011;57598;50.888;4.746;2023-02-13T09:28:54;21.33;;;19.92;;
21569;SDS011;57598;50.888;4.746;2023-02-13T09:31:21;20.88;;;19.35;;
21569;SDS011;57598;50.888;4.746;2023-02-13T09:33:49;22.83;;;21.25;;
21569;SDS011;57598;50.888;4.746;2023-02-13T09:36:17;24.10;;;21.90;;
21569;SDS011;57598;50.888;4.746;2023-02-13T09:38:44;23.88;;;22.02;;
21569;SDS011;57598;50.888;4.746;2023-02-13T09:41:14;21.30;;;19.98;;
21569;SDS011;57598;50.888;4.746;2023-02-13T09:43:43;22.45;;;20.95;;
21569;SDS011;57598;50.888;4.746;2023-02-13T09:46:11;24.52;;;22.73;;
21569;SDS011;57598;50.888;4.746;2023-02-13T09:48:40;26.33;;;23.75;;
21569;SDS011;57598;50.888;4.746;2023-02-13T09:51:09;20.25;;;18.98;;
21569;SDS011;57598;50.888;4.746;2023-02-13T09:53:40;23.55;;;21.92;;
21569;SDS011;57598;50.888;4.746;2023-02-13T09:56:10;23.30;;;22.00;;
21569;SDS011;57598;50.888;4.746;2023-02-13T09:58:45;22.92;;;21.52;;
21569;SDS011;57598;50.888;4.746;2023-02-13T10:01:21;23.00;;;21.48;;
21569;SDS011;57598;50.888;4.746;2023-02-13T10:03:50;23.25;;;21.63;;
21569;SDS011;57598;50.888;4.746;2023-02-13T10:06:21;24.35;;;22.73;;
21569;SDS011;57598;50.888;4.746;2023-02-13T10:08:57;27.30;;;25.38;;
21569;SDS011;57598;50.888;4.746;2023-02-13T10:11:29;24.48;;;22.50;;
21569;SDS011;57598;50.888;4.746;2023-02-13T10:14:00;24.10;;;22.63;;
21569;SDS011;57598;50.888;4.746;2023-02-13T10:16:29;23.92;;;22.30;;
21569;SDS011;57598;50.888;4.746;2023-02-13T10:19:01;25.58;;;23.88;;
21569;SDS011;57598;50.888;4.746;2023-02-13T10:21:32;24.23;;;22.63;;
21569;SDS011;57598;50.888;4.746;2023-02-13T10:24:00;24.40;;;22.83;;
21569;SDS011;57598;50.888;4.746;2023-02-13T10:26:30;27.75;;;25.83;;
21569;SDS011;57598;50.888;4.746;2023-02-13T10:29:11;25.35;;;23.58;;
21569;SDS011;57598;50.888;4.746;2023-02-13T10:31:57;24.92;;;23.25;;
21569;SDS011;57598;50.888;4.746;2023-02-13T10:34:26;27.23;;;24.33;;
21569;SDS011;57598;50.888;4.746;2023-02-13T10:36:54;30.13;;;28.23;;
21569;SDS011;57598;50.888;4.746;2023-02-13T10:39:22;25.05;;;23.15;;
21569;SDS011;57598;50.888;4.746;2023-02-13T10:41:51;26.55;;;24.48;;
21569;SDS011;57598;50.888;4.746;2023-02-13T10:47:11;23.83;;;22.35;;
21569;SDS011;57598;50.888;4.746;2023-02-13T10:49:44;23.55;;;22.08;;
21569;SDS011;57598;50.888;4.746;2023-02-13T10:52:16;23.15;;;21.65;;
21569;SDS011;57598;50.888;4.746;2023-02-13T10:54:52;21.85;;;20.60;;
21569;SDS011;57598;50.888;4.746;2023-02-13T10:57:23;26.52;;;24.75;;
21569;SDS011;57598;50.888;4.746;2023-02-13T10:59:56;24.83;;;23.27;;
21569;SDS011;57598;50.888;4.746;2023-02-13T11:02:28;23.38;;;22.08;;
21569;SDS011;57598;50.888;4.746;2023-02-13T11:04:57;25.77;;;24.08;;
21569;SDS011;57598;50.888;4.746;2023-02-13T11:07:25;24.63;;;22.70;;
21569;SDS011;57598;50.888;4.746;2023-02-13T11:09:53;21.30;;;20.10;;
21569;SDS011;57598;50.888;4.746;2023-02-13T11:12:22;25.02;;;23.33;;
21569;SDS011;57598;50.888;4.746;2023-02-13T11:14:52;25.00;;;23.30;;
21569;SDS011;57598;50.888;4.746;2023-02-13T11:17:20;24.55;;;22.85;;
21569;SDS011;57598;50.888;4.746;2023-02-13T11:19:50;23.63;;;22.17;;
21569;SDS011;57598;50.888;4.746;2023-02-13T11:22:25;25.58;;;24.02;;
21569;SDS011;57598;50.888;4.746;2023-02-13T11:24:54;23.92;;;22.42;;
21569;SDS011;57598;50.888;4.746;2023-02-13T11:27:22;24.58;;;23.02;;
21569;SDS011;57598;50.888;4.746;2023-02-13T11:29:50;24.92;;;23.33;;
21569;SDS011;57598;50.888;4.746;2023-02-13T11:32:19;27.13;;;24.80;;
21569;SDS011;57598;50.888;4.746;2023-02-13T11:34:47;25.88;;;24.13;;
21569;SDS011;57598;50.888;4.746;2023-02-13T11:37:18;23.38;;;21.85;;
21569;SDS011;57598;50.888;4.746;2023-02-13T11:39:46;24.20;;;22.60;;
21569;SDS011;57598;50.888;4.746;2023-02-13T11:42:14;22.40;;;20.95;;
21569;SDS011;57598;50.888;4.746;2023-02-13T11:44:42;24.95;;;23.10;;
21569;SDS011;57598;50.888;4.746;2023-02-13T11:47:10;20.13;;;18.90;;
21569;SDS011;57598;50.888;4.746;2023-02-13T11:49:42;22.40;;;21.08;;
21569;SDS011;57598;50.888;4.746;2023-02-13T11:52:12;23.00;;;21.48;;
21569;SDS011;57598;50.888;4.746;2023-02-13T11:54:47;20.85;;;19.65;;
21569;SDS011;57598;50.888;4.746;2023-02-13T11:57:22;20.75;;;19.55;;
21569;SDS011;57598;50.888;4.746;2023-02-13T11:59:50;21.30;;;19.90;;
21569;SDS011;57598;50.888;4.746;2023-02-13T12:02:19;21.20;;;19.90;;
21569;SDS011;57598;50.888;4.746;2023-02-13T12:04:46;22.08;;;20.58;;
21569;SDS011;57598;50.888;4.746;2023-02-13T12:07:16;22.50;;;21.08;;
21569;SDS011;57598;50.888;4.746;2023-02-13T12:09:44;23.40;;;21.85;;
21569;SDS011;57598;50.888;4.746;2023-02-13T12:12:17;20.55;;;19.35;;
21569;SDS011;57598;50.888;4.746;2023-02-13T12:14:45;20.48;;;19.27;;
21569;SDS011;57598;50.888;4.746;2023-02-13T12:17:14;25.35;;;23.23;;
21569;SDS011;57598;50.888;4.746;2023-02-13T12:19:44;22.07;;;20.27;;
21569;SDS011;57598;50.888;4.746;2023-02-13T12:22:16;20.63;;;19.47;;
21569;SDS011;57598;50.888;4.746;2023-02-13T12:24:53;20.88;;;19.58;;
21569;SDS011;57598;50.888;4.746;2023-02-13T12:27:27;25.10;;;23.42;;
21569;SDS011;57598;50.888;4.746;2023-02-13T12:30:10;21.45;;;20.02;;
21569;SDS011;57598;50.888;4.746;2023-02-13T12:32:44;21.08;;;19.70;;
21569;SDS011;57598;50.888;4.746;2023-02-13T12:35:18;24.25;;;22.42;;
21569;SDS011;57598;50.888;4.746;2023-02-13T12:37:54;19.00;;;17.90;;
21569;SDS011;57598;50.888;4.746;2023-02-13T12:40:41;20.13;;;18.98;;
21569;SDS011;57598;50.888;4.746;2023-02-13T12:43:27;23.77;;;22.27;;
21569;SDS011;57598;50.888;4.746;2023-02-13T12:45:58;21.15;;;19.95;;
21569;SDS011;57598;50.888;4.746;2023-02-13T12:48:33;18.90;;;17.80;;
21569;SDS011;57598;50.888;4.746;2023-02-13T12:51:07;20.48;;;19.27;;
21569;SDS011;57598;50.888;4.746;2023-02-13T12:53:41;20.05;;;18.85;;
21569;SDS011;57598;50.888;4.746;2023-02-13T12:56:13;19.73;;;18.63;;
21569;SDS011;57598;50.888;4.746;2023-02-13T12:58:50;19.80;;;18.70;;
21569;SDS011;57598;50.888;4.746;2023-02-13T13:01:29;20.55;;;19.35;;
21569;SDS011;57598;50.888;4.746;2023-02-13T13:04:05;21.35;;;19.95;;
21569;SDS011;57598;50.888;4.746;2023-02-13T13:06:39;21.63;;;20.15;;
21569;SDS011;57598;50.888;4.746;2023-02-13T13:12:33;21.38;;;20.13;;
21569;SDS011;57598;50.888;4.746;2023-02-13T13:15:12;21.45;;;20.02;;
21569;SDS011;57598;50.888;4.746;2023-02-13T13:17:47;20.55;;;19.35;;
21569;SDS011;57598;50.888;4.746;2023-02-13T13:20:35;20.15;;;18.95;;
21569;SDS011;57598;50.888;4.746;2023-02-13T13:26:44;21.05;;;19.85;;
21569;SDS011;57598;50.888;4.746;2023-02-13T13:29:23;22.50;;;21.20;;
21569;SDS011;57598;50.888;4.746;2023-02-13T13:31:54;20.88;;;19.55;;
21569;SDS011;57598;50.888;4.746;2023-02-13T13:34:23;20.45;;;19.25;;
21569;SDS011;57598;50.888;4.746;2023-02-13T13:36:58;22.67;;;20.75;;
21569;SDS011;57598;50.888;4.746;2023-02-13T13:53:26;23.98;;;22.23;;
21569;SDS011;57598;50.888;4.746;2023-02-13T13:56:03;20.75;;;19.55;;
21569;SDS011;57598;50.888;4.746;2023-02-13T13:58:51;21.90;;;20.60;;
21569;SDS011;57598;50.888;4.746;2023-02-13T15:31:00;20.02;;;18.83;;
21569;SDS011;57598;50.888;4.746;2023-02-13T15:33:28;22.75;;;21.20;;
21569;SDS011;57598;50.888;4.746;2023-02-13T15:35:56;19.65;;;18.55;;
21569;SDS011;57598;50.888;4.746;2023-02-13T15:38:25;20.48;;;19.27;;
21569;SDS011;57598;50.888;4.746;2023-02-13T15:40:52;22.58;;;21.27;;
21569;SDS011;57598;50.888;4.746;2023-02-13T15:43:21;21.02;;;19.77;;
21569;SDS011;57598;50.888;4.746;2023-02-13T15:45:49;22.42;;;19.83;;
21569;SDS011;57598;50.888;4.746;2023-02-13T15:48:18;19.58;;;18.48;;
21569;SDS011;57598;50.888;4.746;2023-02-13T15:50:46;19.48;;;18.33;;
21569;SDS011;57598;50.888;4.746;2023-02-13T15:53:14;22.13;;;20.73;;
21569;SDS011;57598;50.888;4.746;2023-02-13T15:55:53;19.52;;;18.42;;
21569;SDS011;57598;50.888;4.746;2023-02-13T15:58:21;20.73;;;19.55;;
21569;SDS011;57598;50.888;4.746;2023-02-13T16:00:51;20.55;;;19.33;;
21569;SDS011;57598;50.888;4.746;2023-02-13T16:03:20;22.23;;;20.90;;
21569;SDS011;57598;50.888;4.746;2023-02-13T16:05:49;21.50;;;20.20;;
21569;SDS011;57598;50.888;4.746;2023-02-13T16:08:23;22.35;;;20.95;;
21569;SDS011;57598;50.888;4.746;2023-02-13T16:11:07;19.52;;;18.42;;
21569;SDS011;57598;50.888;4.746;2023-02-13T16:13:34;20.10;;;18.90;;
21569;SDS011;57598;50.888;4.746;2023-02-13T16:16:02;19.45;;;18.35;;
21569;SDS011;57598;50.888;4.746;2023-02-13T16:18:36;19.45;;;18.35;;
21569;SDS011;57598;50.888;4.746;2023-02-13T16:21:03;19.80;;;18.70;;
21569;SDS011;57598;50.888;4.746;2023-02-13T16:23:33;18.92;;;17.83;;
21569;SDS011;57598;50.888;4.746;2023-02-13T16:26:00;21.60;;;20.30;;
21569;SDS011;57598;50.888;4.746;2023-02-13T16:28:29;19.33;;;18.23;;
21569;SDS011;57598;50.888;4.746;2023-02-13T16:30:58;19.00;;;17.90;;
21569;SDS011;57598;50.888;4.746;2023-02-13T16:33:27;19.08;;;17.98;;
21569;SDS011;57598;50.888;4.746;2023-02-13T16:35:56;18.60;;;17.50;;
21569;SDS011;57598;50.888;4.746;2023-02-13T16:38:26;20.00;;;18.90;;
21569;SDS011;57598;50.888;4.746;2023-02-13T16:40:54;19.83;;;18.73;;
21569;SDS011;57598;50.888;4.746;2023-02-13T16:43:38;19.38;;;18.27;;
21569;SDS011;57598;50.888;4.746;2023-02-13T16:46:15;21.48;;;20.05;;
21569;SDS011;57598;50.888;4.746;2023-02-13T16:48:44;19.08;;;17.98;;
21569;SDS011;57598;50.888;4.746;2023-02-13T16:51:14;19.30;;;18.20;;
21569;SDS011;57598;50.888;4.746;2023-02-13T16:53:42;18.80;;;17.70;;
21569;SDS011;57598;50.888;4.746;2023-02-13T16:56:10;19.50;;;18.40;;
21569;SDS011;57598;50.888;4.746;2023-02-13T16:58:37;19.65;;;18.55;;
21569;SDS011;57598;50.888;4.746;2023-02-13T17:01:04;21.65;;;20.27;;
21569;SDS011;57598;50.888;4.746;2023-02-13T17:03:32;20.30;;;19.20;;
21569;SDS011;57598;50.888;4.746;2023-02-13T17:05:59;20.48;;;19.27;;
21569;SDS011;57598;50.888;4.746;2023-02-13T17:08:29;20.20;;;19.08;;
21569;SDS011;57598;50.888;4.746;2023-02-13T17:11:00;25.88;;;24.38;;
21569;SDS011;57598;50.888;4.746;2023-02-13T17:13:28;22.98;;;21.67;;
21569;SDS011;57598;50.888;4.746;2023-02-13T17:15:55;19.92;;;18.83;;
21569;SDS011;57598;50.888;4.746;2023-02-13T17:18:24;20.90;;;19.70;;
21569;SDS011;57598;50.888;4.746;2023-02-13T17:20:51;22.10;;;20.67;;
21569;SDS011;57598;50.888;4.746;2023-02-13T17:23:19;21.52;;;20.33;;
21569;SDS011;57598;50.888;4.746;2023-02-13T17:25:49;31.25;;;29.17;;
21569;SDS011;57598;50.888;4.746;2023-02-13T17:28:18;21.98;;;20.77;;
21569;SDS011;57598;50.888;4.746;2023-02-13T17:30:46;21.88;;;20.67;;
21569;SDS011;57598;50.888;4.746;2023-02-13T17:33:14;21.30;;;20.10;;
21569;SDS011;57598;50.888;4.746;2023-02-13T17:35:42;28.23;;;26.50;;
21569;SDS011;57598;50.888;4.746;2023-02-13T17:38:10;21.90;;;20.70;;
21569;SDS011;57598;50.888;4.746;2023-02-13T17:40:37;22.98;;;21.67;;
21569;SDS011;57598;50.888;4.746;2023-02-13T17:43:08;23.23;;;21.92;;
21569;SDS011;57598;50.888;4.746;2023-02-13T17:45:36;26.55;;;24.92;;
21569;SDS011;57598;50.888;4.746;2023-02-13T17:48:03;23.95;;;22.65;;
21569;SDS011;57598;50.888;4.746;2023-02-13T17:50:31;24.40;;;22.95;;
21569;SDS011;57598;50.888;4.746;2023-02-13T17:53:00;24.67;;;23.17;;
21569;SDS011;57598;50.888;4.746;2023-02-13T17:55:28;24.83;;;23.35;;
21569;SDS011;57598;50.888;4.746;2023-02-13T17:57:56;24.25;;;22.95;;
21569;SDS011;57598;50.888;4.746;2023-02-13T18:00:26;24.40;;;23.00;;
21569;SDS011;57598;50.888;4.746;2023-02-13T18:02:53;23.60;;;22.30;;
21569;SDS011;57598;50.888;4.746;2023-02-13T18:05:21;24.40;;;23.05;;
21569;SDS011;57598;50.888;4.746;2023-02-13T18:07:48;24.25;;;22.95;;
21569;SDS011;57598;50.888;4.746;2023-02-13T18:10:16;25.05;;;23.65;;
21569;SDS011;57598;50.888;4.746;2023-02-13T18:12:44;23.60;;;22.30;;
21569;SDS011;57598;50.888;4.746;2023-02-13T18:15:12;24.58;;;23.23;;
21569;SDS011;57598;50.888;4.746;2023-02-13T18:17:41;26.17;;;24.67;;
21569;SDS011;57598;50.888;4.746;2023-02-13T18:20:09;24.63;;;23.23;;
21569;SDS011;57598;50.888;4.746;2023-02-13T18:22:37;25.27;;;23.90;;
21569;SDS011;57598;50.888;4.746;2023-02-13T18:25:04;25.25;;;23.85;;
21569;SDS011;57598;50.888;4.746;2023-02-13T18:27:32;24.80;;;23.40;;
21569;SDS011;57598;50.888;4.746;2023-02-13T18:29:59;25.00;;;23.60;;
21569;SDS011;57598;50.888;4.746;2023-02-13T18:32:26;24.85;;;23.45;;
21569;SDS011;57598;50.888;4.746;2023-02-13T18:34:55;26.33;;;24.83;;
21569;SDS011;57598;50.888;4.746;2023-02-13T18:37:23;26.33;;;24.88;;
21569;SDS011;57598;50.888;4.746;2023-02-13T18:39:52;27.02;;;25.42;;
21569;SDS011;57598;50.888;4.746;2023-02-13T18:42:20;25.45;;;24.05;;
21569;SDS011;57598;50.888;4.746;2023-02-13T18:44:47;26.25;;;24.75;;
21569;SDS011;57598;50.888;4.746;2023-02-13T18:47:14;25.33;;;23.92;;
21569;SDS011;57598;50.888;4.746;2023-02-13T18:49:42;25.25;;;23.85;;
21569;SDS011;57598;50.888;4.746;2023-02-13T18:52:11;27.00;;;25.50;;
21569;SDS011;57598;50.888;4.746;2023-02-13T18:54:39;30.80;;;29.05;;
21569;SDS011;57598;50.888;4.746;2023-02-13T18:57:06;25.92;;;24.52;;
21569;SDS011;57598;50.888;4.746;2023-02-13T18:59:33;27.02;;;25.52;;
21569;SDS011;57598;50.888;4.746;2023-02-13T19:02:01;27.98;;;26.38;;
21569;SDS011;57598;50.888;4.746;2023-02-13T19:04:28;27.77;;;26.20;;
21569;SDS011;57598;50.888;4.746;2023-02-13T19:06:55;26.83;;;25.33;;
21569;SDS011;57598;50.888;4.746;2023-02-13T19:09:24;27.70;;;26.10;;
21569;SDS011;57598;50.888;4.746;2023-02-13T19:11:51;27.77;;;26.23;;
21569;SDS011;57598;50.888;4.746;2023-02-13T19:14:19;28.30;;;26.70;;
21569;SDS011;57598;50.888;4.746;2023-02-13T19:16:46;30.75;;;28.63;;
21569;SDS011;57598;50.888;4.746;2023-02-13T19:19:14;28.00;;;26.40;;
21569;SDS011;57598;50.888;4.746;2023-02-13T19:21:41;29.88;;;28.08;;
21569;SDS011;57598;50.888;4.746;2023-02-13T19:24:09;28.98;;;27.38;;
21569;SDS011;57598;50.888;4.746;2023-02-13T19:26:40;33.05;;;30.98;;
21569;SDS011;57598;50.888;4.746;2023-02-13T19:29:08;30.23;;;28.52;;
21569;SDS011;57598;50.888;4.746;2023-02-13T19:31:35;34.30;;;32.13;;
21569;SDS011;57598;50.888;4.746;2023-02-13T19:34:03;29.10;;;27.50;;
21569;SDS011;57598;50.888;4.746;2023-02-13T19:36:31;29.40;;;27.80;;
21569;SDS011;57598;50.888;4.746;2023-02-13T19:38:59;38.85;;;36.25;;
21569;SDS011;57598;50.888;4.746;2023-02-13T19:41:27;29.17;;;27.58;;
21569;SDS011;57598;50.888;4.746;2023-02-13T19:43:56;35.35;;;33.22;;
21569;SDS011;57598;50.888;4.746;2023-02-13T19:46:25;33.17;;;31.15;;
21569;SDS011;57598;50.888;4.746;2023-02-13T19:48:52;31.13;;;29.13;;
21569;SDS011;57598;50.888;4.746;2023-02-13T19:51:20;31.50;;;29.52;;
21569;SDS011;57598;50.888;4.746;2023-02-13T19:53:48;35.13;;;31.98;;
21569;SDS011;57598;50.888;4.746;2023-02-13T19:56:16;31.02;;;29.30;;
21569;SDS011;57598;50.888;4.746;2023-02-13T19:58:43;32.70;;;30.67;;
21569;SDS011;57598;50.888;4.746;2023-02-13T20:01:13;31.67;;;29.88;;
21569;SDS011;57598;50.888;4.746;2023-02-13T20:03:41;32.77;;;30.93;;
21569;SDS011;57598;50.888;4.746;2023-02-13T20:06:09;31.02;;;29.23;;
